METAR Data
IDs: Format: Raw Decoded Include TAF

Data at: 1824 UTC 21 Nov 2018

METAR for:KBEA (Beeville Muni, TX, US)
Text:KBEA 211815Z AUTO 03009KT 10SM OVC060 16/07 A3029 RMK AO2 T01580071
Temperature: 15.8°C ( 60°F)
Dewpoint: 7.1°C ( 45°F) [RH = 56%]
Pressure (altimeter):30.29 inches Hg (1025.8 mb)
Winds:from the NNE (30 degrees) at 10 MPH (9 knots; 4.6 m/s)
Visibility:10 or more sm (16+ km)
Ceiling:6000 feet AGL
Clouds: overcast cloud deck at 6000 feet AGL
QC Flag:automated observation with no human augmentation